sensor_id;sensor_type;location;lat;lon;timestamp;P1;durP1;ratioP1;P2;durP2;ratioP2
74723;SDS011;63333;55.800;37.622;2022-09-14T00:00:07;5.97;;;4.10;;
74723;SDS011;63333;55.800;37.622;2022-09-14T00:02:33;7.03;;;5.13;;
74723;SDS011;63333;55.800;37.622;2022-09-14T00:04:59;6.80;;;5.07;;
74723;SDS011;63333;55.800;37.622;2022-09-14T00:07:24;8.27;;;5.53;;
74723;SDS011;63333;55.800;37.622;2022-09-14T00:09:50;6.15;;;5.18;;
74723;SDS011;63333;55.800;37.622;2022-09-14T00:12:16;5.85;;;4.30;;
74723;SDS011;63333;55.800;37.622;2022-09-14T00:14:42;7.25;;;5.18;;
74723;SDS011;63333;55.800;37.622;2022-09-14T00:17:07;9.07;;;5.85;;
74723;SDS011;63333;55.800;37.622;2022-09-14T00:19:35;7.70;;;4.95;;
74723;SDS011;63333;55.800;37.622;2022-09-14T00:22:00;8.35;;;6.15;;
74723;SDS011;63333;55.800;37.622;2022-09-14T00:24:27;9.07;;;6.20;;
74723;SDS011;63333;55.800;37.622;2022-09-14T00:26:58;8.48;;;5.85;;
74723;SDS011;63333;55.800;37.622;2022-09-14T00:29:24;8.05;;;6.00;;
74723;SDS011;63333;55.800;37.622;2022-09-14T00:31:50;8.27;;;6.22;;
74723;SDS011;63333;55.800;37.622;2022-09-14T00:34:16;10.52;;;7.47;;
74723;SDS011;63333;55.800;37.622;2022-09-14T00:36:43;10.77;;;7.43;;
74723;SDS011;63333;55.800;37.622;2022-09-14T00:39:11;9.55;;;6.90;;
74723;SDS011;63333;55.800;37.622;2022-09-14T00:41:38;10.48;;;6.43;;
74723;SDS011;63333;55.800;37.622;2022-09-14T00:46:35;9.45;;;6.93;;
74723;SDS011;63333;55.800;37.622;2022-09-14T00:52:13;8.63;;;6.07;;
74723;SDS011;63333;55.800;37.622;2022-09-14T00:54:45;8.93;;;6.03;;
74723;SDS011;63333;55.800;37.622;2022-09-14T00:57:15;8.70;;;7.03;;
74723;SDS011;63333;55.800;37.622;2022-09-14T00:59:41;9.48;;;6.85;;
74723;SDS011;63333;55.800;37.622;2022-09-14T01:02:08;8.32;;;6.05;;
74723;SDS011;63333;55.800;37.622;2022-09-14T01:04:36;10.40;;;7.05;;
74723;SDS011;63333;55.800;37.622;2022-09-14T01:09:43;8.73;;;6.45;;
74723;SDS011;63333;55.800;37.622;2022-09-14T01:15:14;10.13;;;7.28;;
74723;SDS011;63333;55.800;37.622;2022-09-14T01:20:37;8.88;;;6.32;;
74723;SDS011;63333;55.800;37.622;2022-09-14T01:26:01;9.80;;;6.30;;
74723;SDS011;63333;55.800;37.622;2022-09-14T01:28:57;9.88;;;6.28;;
74723;SDS011;63333;55.800;37.622;2022-09-14T01:31:34;7.63;;;5.97;;
74723;SDS011;63333;55.800;37.622;2022-09-14T01:37:02;7.90;;;5.50;;
74723;SDS011;63333;55.800;37.622;2022-09-14T01:39:37;8.15;;;5.20;;
74723;SDS011;63333;55.800;37.622;2022-09-14T19:18:51;29.70;;;16.15;;
74723;SDS011;63333;55.800;37.622;2022-09-14T19:21:18;30.58;;;16.70;;
74723;SDS011;63333;55.800;37.622;2022-09-14T19:23:45;28.75;;;17.58;;
74723;SDS011;63333;55.800;37.622;2022-09-14T19:26:12;24.98;;;15.20;;
74723;SDS011;63333;55.800;37.622;2022-09-14T19:28:43;26.30;;;15.93;;
74723;SDS011;63333;55.800;37.622;2022-09-14T19:31:10;26.10;;;14.85;;
74723;SDS011;63333;55.800;37.622;2022-09-14T19:33:37;24.70;;;15.30;;
74723;SDS011;63333;55.800;37.622;2022-09-14T19:36:07;30.23;;;16.10;;
74723;SDS011;63333;55.800;37.622;2022-09-14T19:38:35;29.35;;;16.13;;
74723;SDS011;63333;55.800;37.622;2022-09-14T19:41:01;31.00;;;17.63;;
74723;SDS011;63333;55.800;37.622;2022-09-14T19:43:27;28.17;;;15.70;;
74723;SDS011;63333;55.800;37.622;2022-09-14T19:45:59;38.30;;;19.25;;
74723;SDS011;63333;55.800;37.622;2022-09-14T19:48:25;38.83;;;23.55;;
74723;SDS011;63333;55.800;37.622;2022-09-14T19:50:51;31.73;;;17.25;;
74723;SDS011;63333;55.800;37.622;2022-09-14T19:53:16;32.10;;;17.48;;
74723;SDS011;63333;55.800;37.622;2022-09-14T19:55:42;36.08;;;18.50;;
74723;SDS011;63333;55.800;37.622;2022-09-14T19:58:07;28.90;;;17.55;;
74723;SDS011;63333;55.800;37.622;2022-09-14T20:00:33;32.78;;;17.63;;
74723;SDS011;63333;55.800;37.622;2022-09-14T20:02:59;33.92;;;17.90;;
74723;SDS011;63333;55.800;37.622;2022-09-14T20:05:25;30.92;;;16.80;;
74723;SDS011;63333;55.800;37.622;2022-09-14T20:07:50;32.67;;;17.98;;
74723;SDS011;63333;55.800;37.622;2022-09-14T20:10:16;32.03;;;17.30;;
74723;SDS011;63333;55.800;37.622;2022-09-14T20:12:42;29.80;;;16.83;;
74723;SDS011;63333;55.800;37.622;2022-09-14T20:15:07;31.90;;;17.63;;
74723;SDS011;63333;55.800;37.622;2022-09-14T20:17:33;33.55;;;16.73;;
74723;SDS011;63333;55.800;37.622;2022-09-14T20:19:59;29.20;;;16.13;;
74723;SDS011;63333;55.800;37.622;2022-09-14T20:22:24;31.75;;;16.90;;
74723;SDS011;63333;55.800;37.622;2022-09-14T20:24:50;28.52;;;16.23;;
74723;SDS011;63333;55.800;37.622;2022-09-14T20:27:15;31.23;;;15.02;;
74723;SDS011;63333;55.800;37.622;2022-09-14T20:29:41;25.55;;;14.82;;
74723;SDS011;63333;55.800;37.622;2022-09-14T20:32:06;29.48;;;15.63;;
74723;SDS011;63333;55.800;37.622;2022-09-14T20:34:31;27.63;;;15.85;;
74723;SDS011;63333;55.800;37.622;2022-09-14T20:36:58;26.88;;;14.90;;
74723;SDS011;63333;55.800;37.622;2022-09-14T20:39:24;30.77;;;16.42;;
74723;SDS011;63333;55.800;37.622;2022-09-14T20:41:51;28.25;;;15.52;;
74723;SDS011;63333;55.800;37.622;2022-09-14T20:44:17;27.08;;;15.02;;
74723;SDS011;63333;55.800;37.622;2022-09-14T20:46:46;28.73;;;15.10;;
74723;SDS011;63333;55.800;37.622;2022-09-14T20:49:14;28.52;;;15.52;;
74723;SDS011;63333;55.800;37.622;2022-09-14T20:51:41;28.73;;;15.65;;
74723;SDS011;63333;55.800;37.622;2022-09-14T20:54:09;30.13;;;15.43;;
74723;SDS011;63333;55.800;37.622;2022-09-14T20:56:38;27.77;;;16.05;;
74723;SDS011;63333;55.800;37.622;2022-09-14T20:59:05;31.10;;;16.90;;
74723;SDS011;63333;55.800;37.622;2022-09-14T21:01:34;31.13;;;15.85;;
74723;SDS011;63333;55.800;37.622;2022-09-14T21:04:02;33.42;;;17.45;;
74723;SDS011;63333;55.800;37.622;2022-09-14T21:06:29;33.42;;;16.92;;
74723;SDS011;63333;55.800;37.622;2022-09-14T21:08:55;32.83;;;16.58;;
74723;SDS011;63333;55.800;37.622;2022-09-14T21:11:24;32.47;;;17.42;;
74723;SDS011;63333;55.800;37.622;2022-09-14T21:13:51;31.38;;;16.92;;
74723;SDS011;63333;55.800;37.622;2022-09-14T21:16:18;30.08;;;16.35;;
74723;SDS011;63333;55.800;37.622;2022-09-14T21:18:52;34.40;;;17.15;;
74723;SDS011;63333;55.800;37.622;2022-09-14T21:21:22;41.00;;;19.50;;
74723;SDS011;63333;55.800;37.622;2022-09-14T21:23:48;34.20;;;17.80;;
74723;SDS011;63333;55.800;37.622;2022-09-14T21:26:14;34.42;;;17.48;;
74723;SDS011;63333;55.800;37.622;2022-09-14T21:28:41;38.33;;;17.88;;
74723;SDS011;63333;55.800;37.622;2022-09-14T21:33:34;36.60;;;18.92;;
74723;SDS011;63333;55.800;37.622;2022-09-14T21:36:05;35.83;;;18.13;;
74723;SDS011;63333;55.800;37.622;2022-09-14T21:38:35;35.78;;;17.52;;
74723;SDS011;63333;55.800;37.622;2022-09-14T21:41:01;33.70;;;17.20;;
74723;SDS011;63333;55.800;37.622;2022-09-14T21:43:29;39.25;;;17.50;;
74723;SDS011;63333;55.800;37.622;2022-09-14T21:45:58;34.97;;;17.55;;
74723;SDS011;63333;55.800;37.622;2022-09-14T21:48:23;33.03;;;15.95;;
74723;SDS011;63333;55.800;37.622;2022-09-14T21:50:49;35.17;;;15.77;;
74723;SDS011;63333;55.800;37.622;2022-09-14T21:53:32;29.50;;;15.38;;
74723;SDS011;63333;55.800;37.622;2022-09-14T21:55:58;35.50;;;16.80;;
74723;SDS011;63333;55.800;37.622;2022-09-14T21:58:25;35.15;;;15.85;;
74723;SDS011;63333;55.800;37.622;2022-09-14T22:00:55;26.50;;;14.38;;
74723;SDS011;63333;55.800;37.622;2022-09-14T22:03:28;29.27;;;15.07;;
74723;SDS011;63333;55.800;37.622;2022-09-14T22:06:00;30.60;;;15.63;;
74723;SDS011;63333;55.800;37.622;2022-09-14T22:08:29;32.55;;;16.23;;
74723;SDS011;63333;55.800;37.622;2022-09-14T22:11:05;33.83;;;15.80;;
74723;SDS011;63333;55.800;37.622;2022-09-14T22:13:33;29.10;;;15.93;;
74723;SDS011;63333;55.800;37.622;2022-09-14T22:16:08;28.98;;;14.38;;
74723;SDS011;63333;55.800;37.622;2022-09-14T22:18:36;25.50;;;13.75;;
74723;SDS011;63333;55.800;37.622;2022-09-14T22:21:03;28.48;;;13.48;;
74723;SDS011;63333;55.800;37.622;2022-09-14T22:23:29;34.13;;;15.02;;
74723;SDS011;63333;55.800;37.622;2022-09-14T22:25:56;30.85;;;14.23;;
74723;SDS011;63333;55.800;37.622;2022-09-14T22:28:22;24.85;;;12.60;;
74723;SDS011;63333;55.800;37.622;2022-09-14T22:30:52;26.70;;;13.55;;
74723;SDS011;63333;55.800;37.622;2022-09-14T22:33:19;25.95;;;11.57;;
74723;SDS011;63333;55.800;37.622;2022-09-14T22:35:49;24.83;;;13.77;;
74723;SDS011;63333;55.800;37.622;2022-09-14T22:38:19;23.35;;;10.88;;
74723;SDS011;63333;55.800;37.622;2022-09-14T22:40:52;22.30;;;12.30;;
74723;SDS011;63333;55.800;37.622;2022-09-14T22:43:19;21.95;;;10.32;;
74723;SDS011;63333;55.800;37.622;2022-09-14T22:45:44;26.50;;;12.75;;
74723;SDS011;63333;55.800;37.622;2022-09-14T22:48:10;23.17;;;10.77;;
74723;SDS011;63333;55.800;37.622;2022-09-14T22:50:36;19.30;;;9.93;;
74723;SDS011;63333;55.800;37.622;2022-09-14T22:53:01;26.05;;;12.77;;
74723;SDS011;63333;55.800;37.622;2022-09-14T22:55:27;24.65;;;11.52;;
74723;SDS011;63333;55.800;37.622;2022-09-14T22:57:52;18.75;;;10.00;;
74723;SDS011;63333;55.800;37.622;2022-09-14T23:00:17;22.33;;;11.23;;
74723;SDS011;63333;55.800;37.622;2022-09-14T23:02:43;20.95;;;11.40;;
74723;SDS011;63333;55.800;37.622;2022-09-14T23:05:09;21.63;;;10.68;;
74723;SDS011;63333;55.800;37.622;2022-09-14T23:07:35;22.27;;;10.73;;
74723;SDS011;63333;55.800;37.622;2022-09-14T23:10:00;22.52;;;10.82;;
74723;SDS011;63333;55.800;37.622;2022-09-14T23:12:26;22.00;;;12.07;;
74723;SDS011;63333;55.800;37.622;2022-09-14T23:14:51;21.60;;;11.13;;
74723;SDS011;63333;55.800;37.622;2022-09-14T23:17:17;23.67;;;10.60;;
74723;SDS011;63333;55.800;37.622;2022-09-14T23:19:42;22.48;;;10.32;;
74723;SDS011;63333;55.800;37.622;2022-09-14T23:22:07;15.52;;;8.50;;
74723;SDS011;63333;55.800;37.622;2022-09-14T23:24:33;22.67;;;11.15;;
74723;SDS011;63333;55.800;37.622;2022-09-14T23:26:58;18.10;;;10.15;;
74723;SDS011;63333;55.800;37.622;2022-09-14T23:29:24;24.33;;;11.77;;
74723;SDS011;63333;55.800;37.622;2022-09-14T23:32:29;23.25;;;11.48;;
74723;SDS011;63333;55.800;37.622;2022-09-14T23:35:53;21.73;;;10.88;;
74723;SDS011;63333;55.800;37.622;2022-09-14T23:39:15;28.35;;;12.57;;
74723;SDS011;63333;55.800;37.622;2022-09-14T23:42:37;24.67;;;12.18;;
74723;SDS011;63333;55.800;37.622;2022-09-14T23:45:43;30.63;;;12.35;;
74723;SDS011;63333;55.800;37.622;2022-09-14T23:49:08;30.40;;;12.80;;
74723;SDS011;63333;55.800;37.622;2022-09-14T23:52:12;27.50;;;12.02;;
74723;SDS011;63333;55.800;37.622;2022-09-14T23:55:35;25.52;;;12.82;;
74723;SDS011;63333;55.800;37.622;2022-09-14T23:58:59;27.35;;;13.40;;
